Pagrindinis puslapis
METAR-TAF:

METAR-TAF

Oro uostai :

Foz do Iguasu, Parana, Brazilija

platuma: 25-31S, ilguma: 054-35W, Aukštis: 180 m

Dabartinis oras

Ataskaita buvo paskelbta 21 minutes, ne 13:00 UTC
Vėjas 2 kt iš Vakarų/Pietvakarių
Temperatūra 25°C
Drėgmė 74%
Slėgis 1009 hPa
Matomumas: 5000 m
migla

METAR: SBFI 171300Z 25002KT 5000 HZ NSC 25/20 Q1009

Laikas: 10:21 (13:21 UTC)

Prognozė

Ataskaita buvo paskelbta 4 valandos ir 6 minutes, ne 09:15 UTC
Prognozė galioja nuo 17 metu 12 UTC su 18 metu 12 UTC
Vėjas 7 kt iš Pietvakarių
Matomumas 10 km arba daugiau
nėra debesų žemiau 1500 m ir nėra kamuolinių lietaus debesų
Tikimybė 40%
nuo 18 metu 08 UTC su 18 metu 12 UTC
Matomumas: 2000 m
Su prošvaistėmis ne aukštis 200 ft
Rūkas lopais

TAF: SBFI 170915Z 1712/1812 22007KT CAVOK TX33/1718Z TN18/1809Z PROB40 1808/1812 2000 BCFG BKN002 RMK PDW

Orai ataskaitas ir orų prognozės (METAR, TAF).

turimą stotys yra geltonos ir raudonos taškus žemėlapyje.

Perkelti pele per norėdami pamatyti stoties vardą.

Tada spustelėkite, norėdami matyti oro stebėjimo ir prognozės.

Norėdami pakeisti žemėlapį: spustelėkite ant žalios mygtukų su juodo kryžiaus žemyn,; žalią mygtuką su brūkšneliu, jei norite nutolinti; arba žalių rodyklių gretimoms žemėlapius.


METAR-TAF: